Time;durP1;ratioP1;P1;durP2;ratioP2;P2;SDS_P1;SDS_P2;PMS_P1;PMS_P2;Temp;Humidity;BMP_temperature;BMP_pressure;BME280_temperature;BME280_humidity;BME280_pressure;Samples;Min_cycle;Max_cycle;Signal;HPM_P1;HPM_P2
2022/06/25 00:01:26;;;;;;;5.30;4.23;;;;;18.80;100390.00;;;;4943919;29;20600;-69
2022/06/25 00:07:14;;;;;;;5.30;3.97;;;;;18.70;100383.00;;;;4949046;29;20268;-69
2022/06/25 00:10:00;;;;;;;5.17;4.00;;;;;18.70;100390.00;;;;4947085;29;20760;-65
2022/06/25 00:12:47;;;;;;;6.00;4.17;;;;;18.60;100389.00;;;;4948634;29;20232;-69
2022/06/25 00:15:33;;;;;;;6.80;4.90;;;;;18.60;100395.00;;;;4945299;29;20223;-69
2022/06/25 00:18:19;;;;;;;5.30;4.13;;;;;18.60;100388.00;;;;4948441;28;20346;-68
2022/06/25 00:21:07;;;;;;;6.63;3.87;;;;;18.50;100385.00;;;;4948999;28;20240;-69
2022/06/25 00:23:53;;;;;;;5.80;4.10;;;;;18.50;100389.00;;;;4949968;29;20231;-70
2022/06/25 00:26:40;;;;;;;5.97;4.63;;;;;18.50;100396.00;;;;4948491;28;20701;-69
2022/06/25 00:29:26;;;;;;;6.77;4.27;;;;;18.50;100405.00;;;;4949743;28;20418;-69
2022/06/25 00:32:12;;;;;;;4.93;4.03;;;;;18.30;100401.00;;;;4949020;28;20236;-69
2022/06/25 00:34:58;;;;;;;5.13;3.90;;;;;18.30;100411.00;;;;4949284;28;20713;-69
2022/06/25 00:37:46;;;;;;;5.07;3.87;;;;;18.30;100399.00;;;;4949994;29;20275;-68
2022/06/25 00:40:32;;;;;;;5.53;4.07;;;;;18.20;100404.00;;;;4943844;28;20776;-69
2022/06/25 00:43:19;;;;;;;8.77;4.03;;;;;18.20;100410.00;;;;4943892;29;20781;-69
2022/06/25 00:46:06;;;;;;;5.90;3.70;;;;;18.20;100411.00;;;;4949043;28;20224;-69
2022/06/25 00:48:52;;;;;;;4.60;4.10;;;;;18.20;100407.00;;;;4947716;28;20204;-68
2022/06/25 00:51:41;;;;;;;6.73;3.93;;;;;18.20;100414.00;;;;4949672;28;20239;-65
2022/06/25 00:54:34;;;;;;;6.77;4.07;;;;;18.20;100412.00;;;;4942407;28;20592;-69
2022/06/25 00:57:24;;;;;;;6.27;4.53;;;;;18.20;100410.00;;;;4948392;28;20215;-68
2022/06/25 01:00:14;;;;;;;5.23;3.90;;;;;18.20;100421.00;;;;4910485;28;1147270;-69
2022/06/25 01:03:00;;;;;;;5.40;4.30;;;;;18.10;100415.00;;;;4948270;28;20349;-70
2022/06/25 01:05:47;;;;;;;7.23;5.20;;;;;18.10;100422.00;;;;4948871;28;20231;-70
2022/06/25 01:08:33;;;;;;;5.53;4.23;;;;;18.10;100430.00;;;;4944542;29;20926;-69
2022/06/25 01:11:21;;;;;;;7.20;4.37;;;;;18.00;100425.00;;;;4949820;28;20293;-69
2022/06/25 01:14:08;;;;;;;5.37;4.43;;;;;18.10;100439.00;;;;4950071;29;20212;-69
2022/06/25 01:16:54;;;;;;;6.27;4.20;;;;;18.00;100441.00;;;;4949562;28;20251;-67
2022/06/25 01:19:41;;;;;;;8.10;3.87;;;;;17.90;100440.00;;;;4949610;28;20227;-68
2022/06/25 01:22:28;;;;;;;9.77;4.50;;;;;17.90;100442.00;;;;4949696;29;20224;-68
2022/06/25 01:25:15;;;;;;;5.30;4.03;;;;;17.90;100446.00;;;;4949990;29;20256;-70
2022/06/25 01:28:01;;;;;;;5.90;4.03;;;;;17.90;100441.00;;;;4948342;28;20340;-68
2022/06/25 01:30:47;;;;;;;7.17;3.93;;;;;17.90;100445.00;;;;4949961;28;20228;-68
2022/06/25 01:33:34;;;;;;;5.10;4.17;;;;;17.80;100448.00;;;;4944274;29;20220;-69
2022/06/25 01:36:20;;;;;;;6.37;4.00;;;;;17.80;100447.00;;;;4949195;28;20272;-67
2022/06/25 01:39:07;;;;;;;7.30;4.33;;;;;17.90;100450.00;;;;4949291;28;20372;-69
2022/06/25 01:41:54;;;;;;;6.30;4.20;;;;;17.90;100454.00;;;;4948630;28;20239;-70
2022/06/25 01:44:40;;;;;;;5.77;3.87;;;;;17.80;100455.00;;;;4946372;28;20232;-68
2022/06/25 01:47:27;;;;;;;6.07;3.87;;;;;17.80;100458.00;;;;4942733;28;20291;-69
2022/06/25 01:50:14;;;;;;;5.83;4.30;;;;;17.80;100466.00;;;;4948278;28;20240;-68
2022/06/25 01:53:00;;;;;;;5.63;4.03;;;;;17.80;100458.00;;;;4947716;28;20207;-68
2022/06/25 01:55:48;;;;;;;7.30;3.70;;;;;17.80;100453.00;;;;4945608;28;20348;-69
2022/06/25 01:58:34;;;;;;;8.30;4.07;;;;;17.80;100466.00;;;;4944156;28;20216;-69
2022/06/25 02:01:21;;;;;;;4.63;4.03;;;;;17.80;100470.00;;;;4949530;29;20280;-70
2022/06/25 02:04:07;;;;;;;4.80;4.07;;;;;17.80;100469.00;;;;4947529;28;20212;-69
2022/06/25 02:06:54;;;;;;;5.03;3.87;;;;;17.70;100468.00;;;;4948421;28;20215;-69
2022/06/25 02:09:40;;;;;;;5.47;3.80;;;;;17.70;100473.00;;;;4943306;29;20208;-68
2022/06/25 02:12:29;;;;;;;4.80;4.03;;;;;17.60;100472.00;;;;4948828;28;20208;-69
2022/06/25 02:15:15;;;;;;;6.00;4.10;;;;;17.60;100478.00;;;;4947935;28;20292;-67
2022/06/25 02:18:02;;;;;;;6.00;4.00;;;;;17.60;100475.00;;;;4948042;28;20236;-68
2022/06/25 02:20:48;;;;;;;11.43;4.50;;;;;17.60;100476.00;;;;4948335;29;20306;-70
2022/06/25 02:23:34;;;;;;;9.03;4.27;;;;;17.60;100476.00;;;;4942489;28;20279;-68
2022/06/25 02:26:20;;;;;;;4.50;3.73;;;;;17.50;100471.00;;;;4948029;28;20303;-70
2022/06/25 02:29:08;;;;;;;5.20;4.07;;;;;17.50;100471.00;;;;4946992;28;20295;-68
2022/06/25 02:31:54;;;;;;;5.47;3.73;;;;;17.40;100469.00;;;;4946695;29;20291;-66
2022/06/25 02:34:41;;;;;;;4.43;3.70;;;;;17.40;100470.00;;;;4943440;29;20236;-67
2022/06/25 02:37:27;;;;;;;5.33;3.43;;;;;17.40;100470.00;;;;4945872;28;20212;-70
2022/06/25 02:40:14;;;;;;;5.07;3.70;;;;;17.40;100480.00;;;;4948444;28;20252;-69
2022/06/25 02:43:01;;;;;;;4.13;3.73;;;;;17.40;100479.00;;;;4946650;28;20216;-65
2022/06/25 02:45:48;;;;;;;6.43;3.60;;;;;17.40;100478.00;;;;4945219;28;20228;-65
2022/06/25 02:48:34;;;;;;;4.07;3.37;;;;;17.40;100477.00;;;;4947327;28;20287;-67
2022/06/25 02:51:20;;;;;;;5.10;3.60;;;;;17.50;100484.00;;;;4948424;28;20924;-68
2022/06/25 02:54:07;;;;;;;4.20;3.80;;;;;17.40;100493.00;;;;4948134;28;20209;-70
2022/06/25 02:59:59;;;;;;;6.83;3.87;;;;;17.30;100502.00;;;;4948039;28;20904;-69
2022/06/25 03:02:46;;;;;;;3.90;3.43;;;;;17.30;100500.00;;;;4946570;28;20298;-67
2022/06/25 03:05:32;;;;;;;4.30;3.40;;;;;17.30;100506.00;;;;4948083;28;20633;-67
2022/06/25 03:08:19;;;;;;;3.90;3.20;;;;;17.30;100516.00;;;;4947256;28;20226;-67
2022/06/25 03:11:05;;;;;;;4.23;3.37;;;;;17.20;100509.00;;;;4947916;28;20251;-68
2022/06/25 03:13:51;;;;;;;3.83;3.30;;;;;17.20;100524.00;;;;4947400;28;20211;-68
2022/06/25 03:16:37;;;;;;;6.23;3.67;;;;;17.10;100521.00;;;;4942571;28;20222;-69
2022/06/25 03:19:26;;;;;;;6.00;3.27;;;;;17.10;100530.00;;;;4947140;28;20216;-68
2022/06/25 03:22:12;;;;;;;3.37;3.07;;;;;17.10;100527.00;;;;4948436;28;20293;-69
2022/06/25 03:24:59;;;;;;;7.83;3.63;;;;;17.00;100523.00;;;;4945407;29;20598;-66
2022/06/25 03:27:45;;;;;;;6.07;3.33;;;;;17.10;100520.00;;;;4943028;29;20626;-66
2022/06/25 03:30:31;;;;;;;6.00;3.70;;;;;17.10;100524.00;;;;4939898;28;20272;-65
2022/06/25 03:33:19;;;;;;;5.20;3.27;;;;;17.10;100525.00;;;;4946453;28;20231;-66
2022/06/25 03:36:06;;;;;;;4.73;3.30;;;;;17.10;100526.00;;;;4948121;28;20814;-68
2022/06/25 03:38:53;;;;;;;7.27;3.80;;;;;17.10;100529.00;;;;4946453;28;20215;-69
2022/06/25 03:41:39;;;;;;;5.50;3.17;;;;;17.10;100536.00;;;;4947919;29;20233;-66
2022/06/25 03:44:25;;;;;;;5.00;3.20;;;;;17.10;100538.00;;;;4946740;29;20216;-70
2022/06/25 03:47:12;;;;;;;4.93;3.30;;;;;17.00;100529.00;;;;4946982;28;20228;-68
2022/06/25 03:49:58;;;;;;;6.73;3.10;;;;;17.00;100528.00;;;;4948020;28;20658;-68
2022/06/25 03:52:46;;;;;;;4.03;3.07;;;;;17.10;100535.00;;;;4945965;29;20210;-70
2022/06/25 03:55:32;;;;;;;5.17;3.30;;;;;17.10;100533.00;;;;4943015;28;20220;-68
2022/06/25 03:58:38;;;;;;;3.40;3.10;;;;;17.10;100538.00;;;;4941273;28;20289;-69
2022/06/25 04:01:24;;;;;;;3.67;3.10;;;;;17.10;100535.00;;;;4946522;28;20231;-67
2022/06/25 04:04:11;;;;;;;4.73;3.13;;;;;17.10;100552.00;;;;4946446;28;20234;-68
2022/06/25 04:06:57;;;;;;;6.30;3.40;;;;;17.20;100548.00;;;;4948022;28;20236;-70
2022/06/25 04:09:44;;;;;;;4.67;2.93;;;;;17.20;100552.00;;;;4947108;28;20645;-69
2022/06/25 04:12:31;;;;;;;4.03;3.23;;;;;17.20;100546.00;;;;4943212;28;20231;-70
2022/06/25 04:15:17;;;;;;;6.47;3.33;;;;;17.20;100539.00;;;;4947204;28;20303;-67
2022/06/25 04:18:04;;;;;;;4.20;3.40;;;;;17.20;100541.00;;;;4950235;28;20222;-67
2022/06/25 04:20:51;;;;;;;4.23;3.40;;;;;17.20;100536.00;;;;4950155;28;20374;-69
2022/06/25 04:23:37;;;;;;;4.00;3.47;;;;;17.30;100541.00;;;;4949578;28;20250;-68
2022/06/25 04:26:24;;;;;;;4.47;3.43;;;;;17.30;100534.00;;;;4944681;29;20740;-69
2022/06/25 04:29:09;;;;;;;4.27;3.60;;;;;17.40;100534.00;;;;4951103;29;20227;-69
2022/06/25 04:31:56;;;;;;;4.00;3.27;;;;;17.40;100533.00;;;;4950778;28;20306;-68
2022/06/25 04:34:42;;;;;;;4.40;3.50;;;;;17.50;100546.00;;;;4949040;28;20204;-69
2022/06/25 04:37:29;;;;;;;4.70;3.63;;;;;17.50;100543.00;;;;4950410;28;20224;-70
2022/06/25 04:40:16;;;;;;;4.20;3.53;;;;;17.50;100550.00;;;;4949728;29;20229;-69
2022/06/25 04:43:04;;;;;;;5.50;3.60;;;;;17.60;100539.00;;;;4945634;28;20881;-70
2022/06/25 04:45:50;;;;;;;5.30;3.67;;;;;17.60;100545.00;;;;4943576;28;20347;-70
2022/06/25 04:48:36;;;;;;;5.60;3.50;;;;;17.70;100555.00;;;;4947560;28;20287;-66
2022/06/25 04:51:23;;;;;;;4.13;3.40;;;;;17.70;100553.00;;;;4951125;29;20744;-70
2022/06/25 04:54:09;;;;;;;4.57;3.43;;;;;17.70;100556.00;;;;4950470;28;20216;-69
2022/06/25 04:56:55;;;;;;;4.13;3.27;;;;;17.80;100554.00;;;;4949920;28;20856;-68
2022/06/25 04:59:43;;;;;;;5.47;3.90;;;;;17.90;100557.00;;;;4949929;28;20271;-70
2022/06/25 05:02:29;;;;;;;6.23;3.73;;;;;18.00;100566.00;;;;4949863;29;20220;-68
2022/06/25 05:05:15;;;;;;;6.57;3.93;;;;;18.00;100567.00;;;;4949748;28;20227;-70
2022/06/25 05:08:01;;;;;;;7.10;3.63;;;;;18.10;100571.00;;;;4946178;28;20705;-69
2022/06/25 05:10:48;;;;;;;5.20;3.40;;;;;18.20;100569.00;;;;4949072;29;20343;-69
2022/06/25 05:13:34;;;;;;;5.73;3.50;;;;;18.20;100577.00;;;;4950494;28;20222;-68
2022/06/25 05:16:21;;;;;;;4.27;3.57;;;;;18.30;100580.00;;;;4948997;29;20246;-68
2022/06/25 05:19:08;;;;;;;7.07;3.40;;;;;18.40;100572.00;;;;4948202;28;20911;-69
2022/06/25 05:21:54;;;;;;;6.00;3.80;;;;;18.50;100574.00;;;;4950054;29;20752;-69
2022/06/25 05:24:41;;;;;;;7.07;4.20;;;;;18.60;100575.00;;;;4943691;28;20727;-70
2022/06/25 05:27:27;;;;;;;6.63;3.93;;;;;18.70;100586.00;;;;4948270;28;20248;-69
2022/06/25 05:30:14;;;;;;;5.53;3.67;;;;;18.80;100583.00;;;;4947195;28;20240;-68
2022/06/25 05:33:02;;;;;;;6.47;3.93;;;;;18.80;100591.00;;;;4948753;29;20221;-69
2022/06/25 05:35:49;;;;;;;9.90;4.23;;;;;18.90;100590.00;;;;4942889;28;20220;-69
2022/06/25 05:38:35;;;;;;;6.30;4.00;;;;;19.00;100593.00;;;;4942425;28;20259;-69
2022/06/25 05:41:21;;;;;;;9.63;3.90;;;;;19.10;100591.00;;;;4943188;28;20240;-70
2022/06/25 05:44:08;;;;;;;4.90;3.70;;;;;19.10;100601.00;;;;4948472;29;20209;-70
2022/06/25 05:46:54;;;;;;;6.97;3.70;;;;;19.30;100612.00;;;;4943502;29;20280;-70
2022/06/25 05:49:42;;;;;;;6.13;3.57;;;;;19.30;100605.00;;;;4948537;28;20205;-69
2022/06/25 05:52:28;;;;;;;5.37;3.63;;;;;19.30;100605.00;;;;4948667;28;20235;-69
2022/06/25 05:55:15;;;;;;;6.27;3.73;;;;;19.40;100605.00;;;;4947518;28;20696;-69
2022/06/25 05:58:01;;;;;;;6.27;3.40;;;;;19.40;100612.00;;;;4949347;29;20745;-68
2022/06/25 06:00:47;;;;;;;5.60;3.73;;;;;19.50;100613.00;;;;4948082;28;20256;-68
2022/06/25 06:03:34;;;;;;;4.80;3.13;;;;;19.50;100617.00;;;;4949267;29;20220;-69
2022/06/25 06:06:21;;;;;;;4.93;3.60;;;;;19.70;100615.00;;;;4947534;28;20211;-69
2022/06/25 06:09:08;;;;;;;8.97;3.40;;;;;19.70;100624.00;;;;4947976;28;21230;-69
2022/06/25 06:11:54;;;;;;;4.63;3.37;;;;;19.70;100618.00;;;;4945514;28;20236;-69
2022/06/25 06:14:46;;;;;;;4.57;3.50;;;;;19.80;100624.00;;;;4942761;28;20217;-69
2022/06/25 06:17:32;;;;;;;4.23;3.50;;;;;19.80;100627.00;;;;4947184;28;20713;-68
2022/06/25 06:20:19;;;;;;;4.07;3.30;;;;;19.90;100631.00;;;;4948767;29;20327;-69
2022/06/25 06:23:06;;;;;;;4.83;3.30;;;;;19.90;100629.00;;;;4948272;29;20356;-71
2022/06/25 06:25:53;;;;;;;4.17;3.23;;;;;20.00;100632.00;;;;4946315;29;20211;-71
2022/06/25 06:28:39;;;;;;;11.17;5.40;;;;;20.00;100633.00;;;;4945433;28;20236;-69
2022/06/25 06:31:25;;;;;;;6.20;4.70;;;;;20.10;100632.00;;;;4948120;28;20256;-69
2022/06/25 06:34:12;;;;;;;7.27;3.37;;;;;20.10;100636.00;;;;4945257;28;20268;-69
2022/06/25 06:36:58;;;;;;;5.63;3.20;;;;;20.20;100628.00;;;;4948319;28;20228;-69
2022/06/25 06:39:46;;;;;;;5.60;3.27;;;;;20.30;100623.00;;;;4942181;28;20275;-70
2022/06/25 06:42:32;;;;;;;4.67;3.40;;;;;20.40;100634.00;;;;4948449;28;20296;-69
2022/06/25 06:45:18;;;;;;;3.70;2.97;;;;;20.40;100627.00;;;;4947472;28;20383;-69
2022/06/25 06:48:05;;;;;;;3.77;3.37;;;;;20.50;100637.00;;;;4948421;29;20299;-69
2022/06/25 06:50:52;;;;;;;7.53;3.60;;;;;20.60;100630.00;;;;4947377;28;20267;-71
2022/06/25 06:53:38;;;;;;;3.53;2.90;;;;;20.70;100641.00;;;;4944408;29;20215;-69
2022/06/25 06:56:26;;;;;;;3.37;2.90;;;;;20.90;100639.00;;;;4946829;28;20296;-69
2022/06/25 06:59:12;;;;;;;3.60;2.90;;;;;20.90;100642.00;;;;4947736;28;20344;-69
2022/06/25 07:01:58;;;;;;;4.23;2.83;;;;;20.90;100645.00;;;;4945449;28;20240;-70
2022/06/25 07:04:44;;;;;;;3.57;3.00;;;;;20.80;100640.00;;;;4947502;28;20259;-70
2022/06/25 07:07:31;;;;;;;4.40;2.87;;;;;20.90;100642.00;;;;4946969;28;20594;-69
2022/06/25 07:10:18;;;;;;;7.63;2.83;;;;;20.90;100646.00;;;;4947340;28;20456;-69
2022/06/25 07:13:06;;;;;;;5.53;2.90;;;;;20.80;100649.00;;;;4946272;29;20272;-68
2022/06/25 07:15:52;;;;;;;5.07;2.97;;;;;20.90;100659.00;;;;4947577;28;20216;-69
2022/06/25 07:18:38;;;;;;;4.93;2.80;;;;;20.90;100659.00;;;;4948603;29;20219;-69
2022/06/25 07:21:25;;;;;;;3.13;2.70;;;;;20.90;100656.00;;;;4946704;28;20233;-69
2022/06/25 07:24:12;;;;;;;4.10;2.60;;;;;21.00;100659.00;;;;4944247;28;20220;-74
2022/06/25 07:26:58;;;;;;;7.17;4.80;;;;;21.10;100659.00;;;;4947865;28;20216;-75
2022/06/25 07:29:46;;;;;;;7.10;4.20;;;;;21.20;100656.00;;;;4947926;28;20257;-70
2022/06/25 07:32:32;;;;;;;7.80;3.40;;;;;21.30;100654.00;;;;4947879;29;20356;-74
2022/06/25 07:35:19;;;;;;;4.37;2.90;;;;;21.30;100654.00;;;;4947291;28;20345;-72
2022/06/25 07:38:06;;;;;;;3.00;2.70;;;;;21.30;100657.00;;;;4948344;29;20212;-73
2022/06/25 07:40:52;;;;;;;6.30;3.00;;;;;21.40;100653.00;;;;4942304;29;20650;-73
2022/06/25 07:43:39;;;;;;;4.17;2.80;;;;;21.60;100656.00;;;;4946666;28;20207;-73
2022/06/25 07:46:26;;;;;;;3.70;3.00;;;;;21.60;100648.00;;;;4947713;29;20212;-72
2022/06/25 07:49:13;;;;;;;3.37;2.40;;;;;21.70;100657.00;;;;4947148;28;20583;-72
2022/06/25 07:52:00;;;;;;;4.50;2.40;;;;;21.80;100661.00;;;;4948836;29;20816;-71
2022/06/25 07:54:46;;;;;;;4.87;2.50;;;;;21.90;100648.00;;;;4945337;28;20339;-74
2022/06/25 07:57:32;;;;;;;5.20;2.30;;;;;22.00;100651.00;;;;4949975;28;20209;-72
2022/06/25 08:00:20;;;;;;;3.73;2.50;;;;;21.90;100640.00;;;;4951350;29;20903;-72
2022/06/25 08:03:07;;;;;;;5.60;3.03;;;;;22.00;100644.00;;;;4947154;28;20696;-72
2022/06/25 08:05:54;;;;;;;5.73;3.20;;;;;22.00;100644.00;;;;4951467;28;20208;-73
2022/06/25 08:08:40;;;;;;;2.50;2.30;;;;;22.10;100652.00;;;;4951173;29;20228;-73
2022/06/25 08:11:27;;;;;;;3.43;2.20;;;;;22.00;100650.00;;;;4951565;29;20237;-73
2022/06/25 08:14:13;;;;;;;2.07;1.80;;;;;22.10;100650.00;;;;4951923;28;20616;-71
2022/06/25 08:16:59;;;;;;;5.63;2.30;;;;;22.30;100645.00;;;;4950773;28;20939;-73
2022/06/25 08:19:48;;;;;;;4.07;2.17;;;;;22.60;100652.00;;;;4944321;28;20214;-73
2022/06/25 08:22:34;;;;;;;1.77;1.67;;;;;22.60;100651.00;;;;4950334;28;20711;-72
2022/06/25 08:25:20;;;;;;;3.17;1.97;;;;;22.90;100651.00;;;;4949201;29;20218;-72
2022/06/25 08:28:07;;;;;;;3.17;1.70;;;;;23.10;100647.00;;;;4950487;29;20812;-73
2022/06/25 08:30:54;;;;;;;3.90;2.13;;;;;23.30;100649.00;;;;4945067;28;20431;-74
2022/06/25 08:33:40;;;;;;;3.87;1.77;;;;;23.30;100651.00;;;;4949273;28;20841;-73
2022/06/25 08:36:27;;;;;;;2.40;2.00;;;;;23.30;100656.00;;;;4950492;29;20225;-71
2022/06/25 08:39:14;;;;;;;3.50;2.00;;;;;23.60;100650.00;;;;4951245;29;20246;-72
2022/06/25 08:42:01;;;;;;;2.23;2.10;;;;;23.90;100660.00;;;;4950318;29;20718;-73
2022/06/25 08:44:48;;;;;;;4.17;2.30;;;;;24.10;100655.00;;;;4950421;28;20744;-72
2022/06/25 08:47:34;;;;;;;2.23;2.03;;;;;24.20;100655.00;;;;4950073;28;20219;-71
2022/06/25 08:50:22;;;;;;;4.03;1.90;;;;;24.20;100650.00;;;;4949586;28;20232;-75
2022/06/25 08:53:10;;;;;;;5.83;3.23;;;;;24.30;100646.00;;;;4951214;29;21013;-73
2022/06/25 08:55:57;;;;;;;3.13;2.20;;;;;24.30;100658.00;;;;4949006;28;20560;-71
2022/06/25 08:58:44;;;;;;;3.50;1.90;;;;;24.60;100660.00;;;;4950212;29;20697;-72
2022/06/25 09:01:30;;;;;;;2.73;2.03;;;;;24.40;100661.00;;;;4950212;28;20322;-72
2022/06/25 09:04:17;;;;;;;2.03;1.90;;;;;24.20;100662.00;;;;4947851;28;20765;-72
2022/06/25 09:07:12;;;;;;;4.20;2.03;;;;;23.90;100664.00;;;;4950272;28;20706;-74
2022/06/25 09:09:59;;;;;;;1.97;1.70;;;;;23.90;100659.00;;;;4949102;29;20236;-73
2022/06/25 09:12:50;;;;;;;2.97;1.80;;;;;23.90;100665.00;;;;4949537;28;20231;-74
2022/06/25 09:15:39;;;;;;;2.33;1.40;;;;;23.90;100658.00;;;;4949975;28;20356;-71
2022/06/25 09:18:26;;;;;;;1.60;1.50;;;;;23.80;100660.00;;;;4948984;28;20288;-72
2022/06/25 09:21:13;;;;;;;3.23;1.77;;;;;23.80;100657.00;;;;4949353;28;20236;-73
2022/06/25 09:24:00;;;;;;;2.10;1.90;;;;;24.40;100653.00;;;;4949486;28;20231;-74
2022/06/25 09:26:52;;;;;;;6.33;3.27;;;;;24.90;100655.00;;;;4949916;28;20361;-74
2022/06/25 09:29:41;;;;;;;6.57;3.83;;;;;25.20;100663.00;;;;4949750;28;20337;-72
2022/06/25 09:32:42;;;;;;;4.73;2.00;;;;;25.10;100646.00;;;;4946857;28;20228;-75
2022/06/25 09:35:33;;;;;;;2.90;1.87;;;;;25.10;100659.00;;;;4948998;28;20213;-75
2022/06/25 09:38:21;;;;;;;6.13;2.03;;;;;25.10;100661.00;;;;4949738;29;20215;-72
2022/06/25 09:41:07;;;;;;;1.80;1.70;;;;;25.20;100658.00;;;;4945094;29;20606;-72
2022/06/25 09:43:54;;;;;;;4.43;2.70;;;;;25.00;100668.00;;;;4942253;28;20790;-68
2022/06/25 09:46:54;;;;;;;3.50;1.93;;;;;24.70;100666.00;;;;4949251;28;20306;-70
2022/06/25 09:49:40;;;;;;;4.90;2.50;;;;;24.50;100667.00;;;;4949337;29;20240;-68
2022/06/25 09:52:29;;;;;;;5.43;1.80;;;;;24.50;100665.00;;;;4948902;29;20223;-71
2022/06/25 09:55:15;;;;;;;3.13;2.20;;;;;24.80;100662.00;;;;4948369;28;20300;-67
2022/06/25 09:58:02;;;;;;;1.97;1.77;;;;;25.00;100663.00;;;;4943686;28;20216;-73
2022/06/25 10:00:50;;;;;;;3.93;1.90;;;;;25.20;100658.00;;;;4947470;28;20642;-72
2022/06/25 10:03:37;;;;;;;2.67;1.60;;;;;25.30;100659.00;;;;4948695;28;20284;-70
2022/06/25 10:06:35;;;;;;;3.70;2.10;;;;;25.30;100665.00;;;;4948631;28;20298;-72
2022/06/25 10:09:24;;;;;;;4.90;1.90;;;;;25.50;100667.00;;;;4948048;29;20974;-72
2022/06/25 10:12:11;;;;;;;1.77;1.57;;;;;25.50;100664.00;;;;4944376;28;20216;-72
2022/06/25 10:14:58;;;;;;;6.53;2.10;;;;;25.50;100667.00;;;;4946503;29;20294;-72
2022/06/25 10:17:47;;;;;;;2.60;1.83;;;;;25.50;100660.00;;;;4947774;28;20622;-69
2022/06/25 10:20:35;;;;;;;3.53;1.90;;;;;26.00;100653.00;;;;4946400;28;20236;-71
2022/06/25 10:23:22;;;;;;;2.03;1.73;;;;;26.10;100651.00;;;;4948601;28;20755;-71
2022/06/25 10:26:09;;;;;;;3.17;1.80;;;;;26.30;100652.00;;;;4946345;28;20276;-72
2022/06/25 10:28:56;;;;;;;2.63;1.90;;;;;26.50;100649.00;;;;4947257;29;20635;-71
2022/06/25 10:31:42;;;;;;;5.53;2.00;;;;;26.80;100655.00;;;;4945754;28;20768;-71
2022/06/25 10:34:31;;;;;;;3.80;2.07;;;;;26.80;100651.00;;;;4947133;28;20216;-72
2022/06/25 10:37:19;;;;;;;2.17;1.93;;;;;26.90;100650.00;;;;4946650;28;20212;-74
2022/06/25 10:40:09;;;;;;;3.60;2.00;;;;;26.80;100650.00;;;;4944013;28;20725;-73
2022/06/25 10:43:00;;;;;;;3.37;2.03;;;;;26.60;100643.00;;;;4944945;28;20224;-71
2022/06/25 10:45:47;;;;;;;4.83;2.10;;;;;26.80;100648.00;;;;4946342;28;20256;-74
2022/06/25 10:48:34;;;;;;;2.57;2.13;;;;;26.90;100641.00;;;;4946313;28;20345;-69
2022/06/25 10:51:33;;;;;;;3.83;1.93;;;;;27.00;100639.00;;;;4947807;29;20251;-71
2022/06/25 10:54:37;;;;;;;1.90;1.80;;;;;27.00;100652.00;;;;4946967;28;20216;-68
2022/06/25 10:57:39;;;;;;;3.03;2.30;;;;;27.10;100650.00;;;;4947572;29;20684;-69
2022/06/25 11:00:25;;;;;;;4.40;2.20;;;;;27.30;100641.00;;;;4948060;28;21563;-70
2022/06/25 11:03:11;;;;;;;4.07;2.40;;;;;27.50;100643.00;;;;4943757;29;20294;-70
2022/06/25 11:05:59;;;;;;;2.00;1.90;;;;;27.70;100641.00;;;;4947533;28;20578;-72
2022/06/25 11:08:48;;;;;;;2.87;2.03;;;;;27.70;100639.00;;;;4947756;28;20680;-69
2022/06/25 11:11:35;;;;;;;2.05;1.85;;;;;27.80;100641.00;;;;4946220;29;20741;-71
2022/06/25 11:14:24;;;;;;;2.75;2.28;;;;;27.80;100641.00;;;;4947345;28;20345;-71
2022/06/25 11:17:11;;;;;;;7.23;2.37;;;;;27.30;100637.00;;;;4942727;28;20223;-70
2022/06/25 11:20:04;;;;;;;3.30;1.80;;;;;27.00;100644.00;;;;4948267;28;20745;-70
2022/06/25 11:22:52;;;;;;;2.38;1.92;;;;;27.10;100647.00;;;;4947883;29;20305;-70
2022/06/25 11:29:03;;;;;;;2.05;1.70;;;;;27.80;100650.00;;;;4944759;28;20216;-72
2022/06/25 11:31:50;;;;;;;3.15;1.80;;;;;28.00;100655.00;;;;4951898;28;20243;-71
2022/06/25 11:34:37;;;;;;;6.50;2.05;;;;;28.10;100643.00;;;;4950103;28;20216;-71
2022/06/25 11:37:24;;;;;;;3.47;1.98;;;;;27.60;100652.00;;;;4950438;28;20208;-70
2022/06/25 11:40:14;;;;;;;2.42;1.83;;;;;27.20;100654.00;;;;4950217;28;20235;-67
2022/06/25 11:43:08;;;;;;;4.38;1.90;;;;;27.30;100645.00;;;;4946780;29;20259;-72
2022/06/25 11:45:57;;;;;;;3.13;2.70;;;;;27.50;100655.00;;;;4944345;28;20296;-71
2022/06/25 11:48:44;;;;;;;3.03;2.05;;;;;27.30;100650.00;;;;4950671;28;20213;-67
2022/06/25 11:51:30;;;;;;;2.00;1.90;;;;;27.30;100645.00;;;;4952096;28;20243;-70
2022/06/25 11:54:20;;;;;;;2.07;1.90;;;;;27.70;100651.00;;;;4947160;28;20752;-66
2022/06/25 11:57:08;;;;;;;2.40;2.20;;;;;28.20;100633.00;;;;4949131;28;20212;-74
2022/06/25 11:59:56;;;;;;;3.92;2.28;;;;;28.40;100645.00;;;;4951870;28;20354;-71
2022/06/25 12:02:44;;;;;;;3.28;2.05;;;;;28.50;100639.00;;;;4949541;28;20208;-71
2022/06/25 12:05:30;;;;;;;3.17;1.90;;;;;29.00;100651.00;;;;4950306;28;20220;-70
2022/06/25 12:08:17;;;;;;;1.95;1.73;;;;;28.70;100645.00;;;;4952102;28;20216;-71
2022/06/25 12:11:03;;;;;;;4.57;1.95;;;;;28.70;100647.00;;;;4943984;28;20259;-71
2022/06/25 12:13:51;;;;;;;2.00;1.80;;;;;28.90;100639.00;;;;4951794;28;20220;-70
2022/06/25 12:16:47;;;;;;;3.28;1.83;;;;;28.90;100645.00;;;;4950472;28;20709;-72
2022/06/25 12:19:45;;;;;;;3.05;1.80;;;;;28.30;100645.00;;;;4949621;29;20283;-71
2022/06/25 12:22:31;;;;;;;2.75;2.25;;;;;27.90;100652.00;;;;4950536;28;20252;-71
2022/06/25 12:25:24;;;;;;;3.97;1.90;;;;;27.50;100653.00;;;;4950885;28;20291;-73
2022/06/25 12:28:11;;;;;;;2.92;2.05;;;;;27.70;100657.00;;;;4945342;28;20571;-70
2022/06/25 12:31:08;;;;;;;4.03;2.08;;;;;28.20;100654.00;;;;4947482;28;20256;-72
2022/06/25 12:33:56;;;;;;;3.83;1.90;;;;;27.90;100656.00;;;;4951351;29;20304;-72
2022/06/25 12:36:42;;;;;;;2.95;2.25;;;;;27.50;100653.00;;;;4947917;28;20311;-71
2022/06/25 12:39:30;;;;;;;2.28;1.90;;;;;27.10;100661.00;;;;4951081;29;20820;-70
2022/06/25 12:42:17;;;;;;;2.80;2.05;;;;;26.80;100674.00;;;;4948361;28;20224;-71
2022/06/25 12:45:03;;;;;;;4.40;1.88;;;;;26.60;100658.00;;;;4947955;28;20690;-71
2022/06/25 12:47:50;;;;;;;2.80;1.80;;;;;26.60;100673.00;;;;4949804;28;20267;-69
2022/06/25 12:50:39;;;;;;;2.20;2.00;;;;;26.40;100666.00;;;;4947016;28;20744;-69
2022/06/25 12:53:26;;;;;;;2.17;1.63;;;;;26.20;100672.00;;;;4950379;28;20220;-71
2022/06/25 12:56:12;;;;;;;4.30;1.70;;;;;26.30;100675.00;;;;4951119;28;20276;-72
2022/06/25 12:58:58;;;;;;;1.97;1.77;;;;;26.20;100678.00;;;;4948114;28;20251;-73
2022/06/25 13:01:46;;;;;;;4.43;2.10;;;;;26.20;100672.00;;;;4949870;28;20722;-70
2022/06/25 13:04:33;;;;;;;1.70;1.57;;;;;26.20;100670.00;;;;4948008;28;20221;-71
2022/06/25 13:07:21;;;;;;;2.50;2.03;;;;;26.10;100659.00;;;;4949500;29;20251;-73
2022/06/25 13:10:08;;;;;;;3.43;1.90;;;;;26.20;100665.00;;;;4950180;29;20613;-72
2022/06/25 13:12:55;;;;;;;2.27;2.00;;;;;26.30;100658.00;;;;4948109;28;20271;-71
2022/06/25 13:15:41;;;;;;;5.83;1.80;;;;;26.50;100663.00;;;;4949310;28;20886;-70
2022/06/25 13:18:27;;;;;;;2.33;1.67;;;;;26.40;100668.00;;;;4950024;29;20220;-69
2022/06/25 13:21:14;;;;;;;2.90;1.70;;;;;26.20;100664.00;;;;4950627;29;20244;-74
2022/06/25 13:24:02;;;;;;;3.27;1.87;;;;;26.10;100664.00;;;;4947110;28;20216;-72
2022/06/25 13:26:48;;;;;;;15.33;2.37;;;;;25.90;100660.00;;;;4950013;28;20425;-74
2022/06/25 13:29:35;;;;;;;5.27;1.87;;;;;25.70;100664.00;;;;4947000;29;20216;-72
2022/06/25 13:32:21;;;;;;;2.95;2.35;;;;;25.70;100656.00;;;;4948056;29;20251;-70
2022/06/25 13:35:08;;;;;;;2.28;1.90;;;;;25.90;100655.00;;;;4945753;28;20228;-73
2022/06/25 13:37:54;;;;;;;1.83;1.70;;;;;26.10;100652.00;;;;4949448;28;20259;-73
2022/06/25 13:40:42;;;;;;;2.57;1.50;;;;;26.30;100655.00;;;;4952271;28;20260;-74
2022/06/25 13:43:28;;;;;;;2.80;2.00;;;;;26.50;100662.00;;;;4949061;28;20216;-72
2022/06/25 13:46:14;;;;;;;5.30;2.10;;;;;26.70;100653.00;;;;4950185;28;20232;-70
2022/06/25 13:49:01;;;;;;;2.08;1.85;;;;;27.00;100645.00;;;;4948564;28;20212;-73
2022/06/25 13:51:51;;;;;;;4.68;1.70;;;;;27.20;100645.00;;;;4948072;28;20621;-70
2022/06/25 13:54:37;;;;;;;2.90;1.85;;;;;27.20;100652.00;;;;4948656;28;20305;-69
2022/06/25 13:57:25;;;;;;;4.10;1.70;;;;;27.20;100646.00;;;;4949310;28;20212;-72